sensor_id;sensor_type;location;lat;lon;timestamp;P1;durP1;ratioP1;P2;durP2;ratioP2
71696;SDS011;59528;59.082;37.926;2022-07-04T00:02:08;5.33;;;3.43;;
71696;SDS011;59528;59.082;37.926;2022-07-04T00:04:33;8.10;;;3.60;;
71696;SDS011;59528;59.082;37.926;2022-07-04T00:06:59;4.97;;;3.40;;
71696;SDS011;59528;59.082;37.926;2022-07-04T00:09:24;4.80;;;3.50;;
71696;SDS011;59528;59.082;37.926;2022-07-04T00:11:50;3.30;;;3.00;;
71696;SDS011;59528;59.082;37.926;2022-07-04T00:14:15;3.67;;;3.17;;
71696;SDS011;59528;59.082;37.926;2022-07-04T00:16:41;5.30;;;3.53;;
71696;SDS011;59528;59.082;37.926;2022-07-04T00:19:07;3.23;;;2.93;;
71696;SDS011;59528;59.082;37.926;2022-07-04T00:21:32;6.77;;;3.20;;
71696;SDS011;59528;59.082;37.926;2022-07-04T00:23:58;4.07;;;3.10;;
71696;SDS011;59528;59.082;37.926;2022-07-04T00:26:24;4.73;;;3.23;;
71696;SDS011;59528;59.082;37.926;2022-07-04T00:28:49;10.53;;;3.70;;
71696;SDS011;59528;59.082;37.926;2022-07-04T00:31:15;7.50;;;3.57;;
71696;SDS011;59528;59.082;37.926;2022-07-04T00:33:40;7.23;;;3.27;;
71696;SDS011;59528;59.082;37.926;2022-07-04T00:36:06;4.20;;;2.77;;
71696;SDS011;59528;59.082;37.926;2022-07-04T00:38:32;3.83;;;3.37;;
71696;SDS011;59528;59.082;37.926;2022-07-04T00:40:58;5.90;;;3.80;;
71696;SDS011;59528;59.082;37.926;2022-07-04T00:43:24;4.23;;;3.57;;
71696;SDS011;59528;59.082;37.926;2022-07-04T00:45:50;5.50;;;3.60;;
71696;SDS011;59528;59.082;37.926;2022-07-04T00:48:16;6.30;;;3.60;;
71696;SDS011;59528;59.082;37.926;2022-07-04T00:50:42;4.07;;;3.30;;
71696;SDS011;59528;59.082;37.926;2022-07-04T00:53:14;4.10;;;3.07;;
71696;SDS011;59528;59.082;37.926;2022-07-04T00:55:40;5.13;;;3.23;;
71696;SDS011;59528;59.082;37.926;2022-07-04T00:58:07;4.80;;;3.37;;
71696;SDS011;59528;59.082;37.926;2022-07-04T01:00:32;7.70;;;3.60;;
71696;SDS011;59528;59.082;37.926;2022-07-04T01:02:58;5.43;;;3.40;;
71696;SDS011;59528;59.082;37.926;2022-07-04T01:05:23;5.50;;;3.33;;
71696;SDS011;59528;59.082;37.926;2022-07-04T01:07:49;4.53;;;3.20;;
71696;SDS011;59528;59.082;37.926;2022-07-04T01:10:15;6.70;;;3.50;;
71696;SDS011;59528;59.082;37.926;2022-07-04T01:12:40;4.37;;;3.33;;
71696;SDS011;59528;59.082;37.926;2022-07-04T01:15:06;7.07;;;3.73;;
71696;SDS011;59528;59.082;37.926;2022-07-04T01:17:32;4.33;;;3.23;;
71696;SDS011;59528;59.082;37.926;2022-07-04T01:19:57;3.63;;;3.20;;
71696;SDS011;59528;59.082;37.926;2022-07-04T01:22:23;5.97;;;3.40;;
71696;SDS011;59528;59.082;37.926;2022-07-04T01:24:49;4.17;;;3.30;;
71696;SDS011;59528;59.082;37.926;2022-07-04T01:27:15;4.33;;;3.43;;
71696;SDS011;59528;59.082;37.926;2022-07-04T01:29:40;6.20;;;3.30;;
71696;SDS011;59528;59.082;37.926;2022-07-04T01:32:06;3.43;;;3.00;;
71696;SDS011;59528;59.082;37.926;2022-07-04T01:34:32;4.67;;;3.20;;
71696;SDS011;59528;59.082;37.926;2022-07-04T01:36:58;8.27;;;3.40;;
71696;SDS011;59528;59.082;37.926;2022-07-04T01:39:24;5.63;;;3.97;;
71696;SDS011;59528;59.082;37.926;2022-07-04T01:41:49;5.40;;;3.83;;
71696;SDS011;59528;59.082;37.926;2022-07-04T01:44:18;4.10;;;3.53;;
71696;SDS011;59528;59.082;37.926;2022-07-04T01:46:43;6.87;;;3.93;;
71696;SDS011;59528;59.082;37.926;2022-07-04T01:49:09;4.13;;;3.50;;
71696;SDS011;59528;59.082;37.926;2022-07-04T01:51:34;4.10;;;3.47;;
71696;SDS011;59528;59.082;37.926;2022-07-04T01:54:00;7.53;;;3.97;;
71696;SDS011;59528;59.082;37.926;2022-07-04T01:56:25;4.73;;;3.50;;
71696;SDS011;59528;59.082;37.926;2022-07-04T01:58:51;6.83;;;3.47;;
71696;SDS011;59528;59.082;37.926;2022-07-04T02:01:16;8.03;;;3.77;;
71696;SDS011;59528;59.082;37.926;2022-07-04T02:04:02;7.00;;;4.20;;
71696;SDS011;59528;59.082;37.926;2022-07-04T02:06:28;8.40;;;3.77;;
71696;SDS011;59528;59.082;37.926;2022-07-04T02:08:54;5.93;;;3.80;;
71696;SDS011;59528;59.082;37.926;2022-07-04T02:11:38;10.30;;;4.30;;
71696;SDS011;59528;59.082;37.926;2022-07-04T02:14:22;7.40;;;3.93;;
71696;SDS011;59528;59.082;37.926;2022-07-04T02:16:48;6.43;;;4.10;;
71696;SDS011;59528;59.082;37.926;2022-07-04T02:19:13;7.90;;;4.30;;
71696;SDS011;59528;59.082;37.926;2022-07-04T02:21:39;7.23;;;4.60;;
71696;SDS011;59528;59.082;37.926;2022-07-04T02:24:04;6.20;;;4.17;;
71696;SDS011;59528;59.082;37.926;2022-07-04T02:26:30;7.63;;;4.70;;
71696;SDS011;59528;59.082;37.926;2022-07-04T02:28:56;5.50;;;4.43;;
71696;SDS011;59528;59.082;37.926;2022-07-04T02:31:22;5.57;;;4.43;;
71696;SDS011;59528;59.082;37.926;2022-07-04T02:33:48;9.30;;;4.90;;
71696;SDS011;59528;59.082;37.926;2022-07-04T02:36:13;9.10;;;4.33;;
71696;SDS011;59528;59.082;37.926;2022-07-04T02:38:39;8.60;;;4.90;;
71696;SDS011;59528;59.082;37.926;2022-07-04T02:41:04;8.00;;;4.10;;
71696;SDS011;59528;59.082;37.926;2022-07-04T02:43:30;8.50;;;4.20;;
71696;SDS011;59528;59.082;37.926;2022-07-04T02:45:55;11.90;;;7.20;;
71696;SDS011;59528;59.082;37.926;2022-07-04T02:48:21;14.77;;;8.77;;
71696;SDS011;59528;59.082;37.926;2022-07-04T02:50:46;10.80;;;9.00;;
71696;SDS011;59528;59.082;37.926;2022-07-04T02:53:12;11.60;;;6.13;;
71696;SDS011;59528;59.082;37.926;2022-07-04T02:55:37;8.77;;;6.80;;
71696;SDS011;59528;59.082;37.926;2022-07-04T02:58:03;11.90;;;9.03;;
71696;SDS011;59528;59.082;37.926;2022-07-04T03:00:28;11.33;;;7.60;;
71696;SDS011;59528;59.082;37.926;2022-07-04T03:02:54;11.60;;;6.73;;
71696;SDS011;59528;59.082;37.926;2022-07-04T03:05:22;11.67;;;7.37;;
71696;SDS011;59528;59.082;37.926;2022-07-04T03:07:48;17.40;;;6.93;;
71696;SDS011;59528;59.082;37.926;2022-07-04T03:10:13;10.87;;;6.73;;
71696;SDS011;59528;59.082;37.926;2022-07-04T03:12:39;10.00;;;6.37;;
71696;SDS011;59528;59.082;37.926;2022-07-04T03:15:04;9.53;;;5.90;;
71696;SDS011;59528;59.082;37.926;2022-07-04T03:17:30;8.77;;;7.63;;
71696;SDS011;59528;59.082;37.926;2022-07-04T03:19:56;13.90;;;11.07;;
71696;SDS011;59528;59.082;37.926;2022-07-04T03:22:22;20.17;;;13.60;;
71696;SDS011;59528;59.082;37.926;2022-07-04T03:24:47;23.33;;;17.27;;
71696;SDS011;59528;59.082;37.926;2022-07-04T03:27:13;18.93;;;11.80;;
71696;SDS011;59528;59.082;37.926;2022-07-04T03:29:38;21.27;;;14.53;;
71696;SDS011;59528;59.082;37.926;2022-07-04T03:32:04;47.23;;;36.93;;
71696;SDS011;59528;59.082;37.926;2022-07-04T03:34:29;15.57;;;11.40;;
71696;SDS011;59528;59.082;37.926;2022-07-04T03:36:55;17.47;;;12.73;;
71696;SDS011;59528;59.082;37.926;2022-07-04T03:39:23;18.37;;;12.63;;
71696;SDS011;59528;59.082;37.926;2022-07-04T03:41:49;15.20;;;10.37;;
71696;SDS011;59528;59.082;37.926;2022-07-04T03:44:15;17.43;;;10.33;;
71696;SDS011;59528;59.082;37.926;2022-07-04T03:46:40;14.50;;;9.37;;
71696;SDS011;59528;59.082;37.926;2022-07-04T03:49:06;14.30;;;8.83;;
71696;SDS011;59528;59.082;37.926;2022-07-04T03:51:31;16.03;;;8.80;;
71696;SDS011;59528;59.082;37.926;2022-07-04T03:53:57;12.87;;;8.07;;
71696;SDS011;59528;59.082;37.926;2022-07-04T03:56:23;10.93;;;8.17;;
71696;SDS011;59528;59.082;37.926;2022-07-04T03:58:48;15.17;;;8.37;;
71696;SDS011;59528;59.082;37.926;2022-07-04T04:01:15;12.97;;;7.93;;
71696;SDS011;59528;59.082;37.926;2022-07-04T04:03:41;9.47;;;7.53;;
71696;SDS011;59528;59.082;37.926;2022-07-04T04:06:39;9.47;;;7.50;;
71696;SDS011;59528;59.082;37.926;2022-07-04T04:09:04;11.83;;;7.07;;
71696;SDS011;59528;59.082;37.926;2022-07-04T04:11:30;12.30;;;7.13;;
71696;SDS011;59528;59.082;37.926;2022-07-04T04:13:56;11.33;;;7.37;;
71696;SDS011;59528;59.082;37.926;2022-07-04T04:16:22;12.83;;;7.23;;
71696;SDS011;59528;59.082;37.926;2022-07-04T04:18:47;9.90;;;6.83;;
71696;SDS011;59528;59.082;37.926;2022-07-04T04:21:13;8.90;;;6.80;;
71696;SDS011;59528;59.082;37.926;2022-07-04T04:23:38;10.50;;;6.13;;
71696;SDS011;59528;59.082;37.926;2022-07-04T04:26:04;9.83;;;6.50;;
71696;SDS011;59528;59.082;37.926;2022-07-04T04:28:32;11.07;;;7.03;;
71696;SDS011;59528;59.082;37.926;2022-07-04T04:30:58;7.10;;;6.00;;
71696;SDS011;59528;59.082;37.926;2022-07-04T04:33:23;8.23;;;6.20;;
71696;SDS011;59528;59.082;37.926;2022-07-04T04:35:49;8.90;;;5.97;;
71696;SDS011;59528;59.082;37.926;2022-07-04T04:38:14;9.00;;;5.30;;
71696;SDS011;59528;59.082;37.926;2022-07-04T04:40:40;6.30;;;5.30;;
71696;SDS011;59528;59.082;37.926;2022-07-04T04:43:05;8.53;;;6.07;;
71696;SDS011;59528;59.082;37.926;2022-07-04T04:45:31;8.27;;;5.57;;
71696;SDS011;59528;59.082;37.926;2022-07-04T04:47:56;7.00;;;5.03;;
71696;SDS011;59528;59.082;37.926;2022-07-04T04:50:22;6.00;;;5.20;;
71696;SDS011;59528;59.082;37.926;2022-07-04T04:52:47;8.57;;;5.50;;
71696;SDS011;59528;59.082;37.926;2022-07-04T04:55:13;7.10;;;5.43;;
71696;SDS011;59528;59.082;37.926;2022-07-04T04:57:38;6.43;;;5.27;;
71696;SDS011;59528;59.082;37.926;2022-07-04T05:00:04;7.73;;;5.33;;
71696;SDS011;59528;59.082;37.926;2022-07-04T05:02:30;6.57;;;5.87;;
71696;SDS011;59528;59.082;37.926;2022-07-04T05:04:56;8.20;;;5.57;;
71696;SDS011;59528;59.082;37.926;2022-07-04T05:07:21;7.03;;;5.20;;
71696;SDS011;59528;59.082;37.926;2022-07-04T05:09:47;10.00;;;5.80;;
71696;SDS011;59528;59.082;37.926;2022-07-04T05:12:12;7.83;;;5.40;;
71696;SDS011;59528;59.082;37.926;2022-07-04T05:14:38;7.23;;;5.90;;
71696;SDS011;59528;59.082;37.926;2022-07-04T05:17:03;8.90;;;5.73;;
71696;SDS011;59528;59.082;37.926;2022-07-04T05:19:29;10.00;;;5.57;;
71696;SDS011;59528;59.082;37.926;2022-07-04T05:21:55;7.30;;;5.43;;
71696;SDS011;59528;59.082;37.926;2022-07-04T05:24:20;8.50;;;5.80;;
71696;SDS011;59528;59.082;37.926;2022-07-04T05:26:46;11.47;;;5.70;;
71696;SDS011;59528;59.082;37.926;2022-07-04T05:29:11;6.50;;;5.70;;
71696;SDS011;59528;59.082;37.926;2022-07-04T05:31:37;7.33;;;5.33;;
71696;SDS011;59528;59.082;37.926;2022-07-04T05:34:02;7.47;;;5.33;;
71696;SDS011;59528;59.082;37.926;2022-07-04T05:36:28;10.20;;;5.20;;
71696;SDS011;59528;59.082;37.926;2022-07-04T05:38:57;13.87;;;5.57;;
71696;SDS011;59528;59.082;37.926;2022-07-04T05:41:23;10.00;;;5.43;;
71696;SDS011;59528;59.082;37.926;2022-07-04T05:43:48;7.00;;;5.63;;
71696;SDS011;59528;59.082;37.926;2022-07-04T05:46:14;9.63;;;6.00;;
71696;SDS011;59528;59.082;37.926;2022-07-04T05:48:39;8.77;;;6.27;;
71696;SDS011;59528;59.082;37.926;2022-07-04T05:51:05;7.57;;;5.53;;
71696;SDS011;59528;59.082;37.926;2022-07-04T05:53:31;10.90;;;5.87;;
71696;SDS011;59528;59.082;37.926;2022-07-04T05:55:57;9.97;;;6.00;;
71696;SDS011;59528;59.082;37.926;2022-07-04T05:58:23;13.43;;;6.23;;
71696;SDS011;59528;59.082;37.926;2022-07-04T06:00:48;11.80;;;7.00;;
71696;SDS011;59528;59.082;37.926;2022-07-04T06:03:13;16.00;;;7.23;;
71696;SDS011;59528;59.082;37.926;2022-07-04T06:05:39;12.10;;;6.90;;
71696;SDS011;59528;59.082;37.926;2022-07-04T06:08:04;14.47;;;10.47;;
71696;SDS011;59528;59.082;37.926;2022-07-04T06:10:30;15.57;;;9.90;;
71696;SDS011;59528;59.082;37.926;2022-07-04T06:12:56;13.07;;;8.27;;
71696;SDS011;59528;59.082;37.926;2022-07-04T06:15:21;13.80;;;8.13;;
71696;SDS011;59528;59.082;37.926;2022-07-04T06:17:47;17.17;;;9.17;;
71696;SDS011;59528;59.082;37.926;2022-07-04T06:20:13;14.07;;;8.50;;
71696;SDS011;59528;59.082;37.926;2022-07-04T06:22:42;14.47;;;8.43;;
71696;SDS011;59528;59.082;37.926;2022-07-04T06:25:12;13.47;;;8.50;;
71696;SDS011;59528;59.082;37.926;2022-07-04T06:27:37;15.93;;;8.47;;
71696;SDS011;59528;59.082;37.926;2022-07-04T06:30:06;15.30;;;8.00;;
71696;SDS011;59528;59.082;37.926;2022-07-04T06:32:40;13.43;;;8.00;;
71696;SDS011;59528;59.082;37.926;2022-07-04T06:35:06;13.13;;;7.80;;
71696;SDS011;59528;59.082;37.926;2022-07-04T06:37:50;15.50;;;8.37;;
71696;SDS011;59528;59.082;37.926;2022-07-04T06:40:16;16.93;;;8.50;;
71696;SDS011;59528;59.082;37.926;2022-07-04T06:42:42;13.83;;;7.40;;
71696;SDS011;59528;59.082;37.926;2022-07-04T06:45:08;14.40;;;8.30;;
71696;SDS011;59528;59.082;37.926;2022-07-04T06:47:33;12.20;;;8.03;;
71696;SDS011;59528;59.082;37.926;2022-07-04T06:49:59;13.57;;;7.70;;
71696;SDS011;59528;59.082;37.926;2022-07-04T06:52:24;13.20;;;8.47;;
71696;SDS011;59528;59.082;37.926;2022-07-04T06:54:50;10.60;;;7.27;;
71696;SDS011;59528;59.082;37.926;2022-07-04T06:57:15;12.07;;;8.20;;
71696;SDS011;59528;59.082;37.926;2022-07-04T06:59:41;11.47;;;7.87;;
71696;SDS011;59528;59.082;37.926;2022-07-04T07:02:06;12.27;;;7.97;;
71696;SDS011;59528;59.082;37.926;2022-07-04T07:04:32;17.53;;;8.17;;
71696;SDS011;59528;59.082;37.926;2022-07-04T07:06:57;15.47;;;7.80;;
71696;SDS011;59528;59.082;37.926;2022-07-04T07:09:23;17.07;;;9.03;;
71696;SDS011;59528;59.082;37.926;2022-07-04T07:11:48;15.00;;;9.10;;
71696;SDS011;59528;59.082;37.926;2022-07-04T07:14:14;18.63;;;8.90;;
71696;SDS011;59528;59.082;37.926;2022-07-04T07:16:39;22.03;;;9.30;;
71696;SDS011;59528;59.082;37.926;2022-07-04T07:19:05;17.83;;;8.27;;
71696;SDS011;59528;59.082;37.926;2022-07-04T07:21:31;11.77;;;8.17;;
71696;SDS011;59528;59.082;37.926;2022-07-04T07:23:56;13.93;;;8.10;;
71696;SDS011;59528;59.082;37.926;2022-07-04T07:26:22;16.33;;;9.20;;
71696;SDS011;59528;59.082;37.926;2022-07-04T07:28:47;16.23;;;8.80;;
71696;SDS011;59528;59.082;37.926;2022-07-04T07:31:13;14.97;;;8.63;;
71696;SDS011;59528;59.082;37.926;2022-07-04T07:33:39;14.60;;;8.03;;
71696;SDS011;59528;59.082;37.926;2022-07-04T07:36:05;12.33;;;8.50;;
71696;SDS011;59528;59.082;37.926;2022-07-04T07:38:31;13.27;;;8.80;;
71696;SDS011;59528;59.082;37.926;2022-07-04T07:40:56;13.40;;;8.70;;
71696;SDS011;59528;59.082;37.926;2022-07-04T07:43:22;11.43;;;8.60;;
71696;SDS011;59528;59.082;37.926;2022-07-04T07:45:48;10.20;;;6.97;;
71696;SDS011;59528;59.082;37.926;2022-07-04T07:48:14;12.73;;;7.80;;
71696;SDS011;59528;59.082;37.926;2022-07-04T07:50:39;9.63;;;7.57;;
71696;SDS011;59528;59.082;37.926;2022-07-04T07:53:07;11.00;;;7.70;;
71696;SDS011;59528;59.082;37.926;2022-07-04T07:55:33;11.80;;;7.50;;
71696;SDS011;59528;59.082;37.926;2022-07-04T07:57:58;12.73;;;7.27;;
71696;SDS011;59528;59.082;37.926;2022-07-04T08:00:25;9.27;;;7.67;;
71696;SDS011;59528;59.082;37.926;2022-07-04T08:02:50;14.77;;;7.67;;
71696;SDS011;59528;59.082;37.926;2022-07-04T08:05:34;8.57;;;6.33;;
71696;SDS011;59528;59.082;37.926;2022-07-04T08:08:00;12.10;;;7.13;;
71696;SDS011;59528;59.082;37.926;2022-07-04T08:10:27;8.67;;;6.90;;
71696;SDS011;59528;59.082;37.926;2022-07-04T08:12:52;10.30;;;6.73;;
71696;SDS011;59528;59.082;37.926;2022-07-04T08:15:18;12.47;;;7.40;;
71696;SDS011;59528;59.082;37.926;2022-07-04T08:17:43;10.73;;;7.30;;
71696;SDS011;59528;59.082;37.926;2022-07-04T08:20:10;9.40;;;6.63;;
71696;SDS011;59528;59.082;37.926;2022-07-04T08:22:35;8.68;;;6.60;;
71696;SDS011;59528;59.082;37.926;2022-07-04T08:25:01;11.23;;;7.75;;
71696;SDS011;59528;59.082;37.926;2022-07-04T08:27:27;9.23;;;6.75;;
71696;SDS011;59528;59.082;37.926;2022-07-04T08:29:52;11.85;;;7.68;;
71696;SDS011;59528;59.082;37.926;2022-07-04T08:32:18;10.13;;;6.50;;
71696;SDS011;59528;59.082;37.926;2022-07-04T08:34:43;8.63;;;6.90;;
71696;SDS011;59528;59.082;37.926;2022-07-04T08:37:09;9.55;;;6.72;;
71696;SDS011;59528;59.082;37.926;2022-07-04T08:39:35;7.20;;;6.47;;
71696;SDS011;59528;59.082;37.926;2022-07-04T08:42:02;9.90;;;6.97;;
71696;SDS011;59528;59.082;37.926;2022-07-04T08:44:28;12.02;;;7.22;;
71696;SDS011;59528;59.082;37.926;2022-07-04T08:46:55;10.13;;;7.85;;
71696;SDS011;59528;59.082;37.926;2022-07-04T08:49:21;11.90;;;7.13;;
71696;SDS011;59528;59.082;37.926;2022-07-04T08:51:57;11.93;;;7.07;;
71696;SDS011;59528;59.082;37.926;2022-07-04T08:54:24;9.55;;;6.82;;
71696;SDS011;59528;59.082;37.926;2022-07-04T08:57:22;9.57;;;7.15;;
71696;SDS011;59528;59.082;37.926;2022-07-04T09:00:06;9.40;;;7.43;;
71696;SDS011;59528;59.082;37.926;2022-07-04T09:02:32;10.05;;;7.95;;
71696;SDS011;59528;59.082;37.926;2022-07-04T09:04:58;8.57;;;7.45;;
71696;SDS011;59528;59.082;37.926;2022-07-04T09:07:26;8.57;;;6.93;;
71696;SDS011;59528;59.082;37.926;2022-07-04T09:09:53;8.05;;;6.95;;
71696;SDS011;59528;59.082;37.926;2022-07-04T09:12:19;8.93;;;6.90;;
71696;SDS011;59528;59.082;37.926;2022-07-04T09:14:44;8.52;;;7.63;;
71696;SDS011;59528;59.082;37.926;2022-07-04T09:17:10;8.45;;;7.53;;
71696;SDS011;59528;59.082;37.926;2022-07-04T09:19:35;12.82;;;8.90;;
71696;SDS011;59528;59.082;37.926;2022-07-04T09:22:02;11.55;;;7.50;;
71696;SDS011;59528;59.082;37.926;2022-07-04T09:24:48;10.00;;;7.80;;
71696;SDS011;59528;59.082;37.926;2022-07-04T09:27:28;9.73;;;7.95;;
71696;SDS011;59528;59.082;37.926;2022-07-04T09:29:53;14.23;;;8.07;;
71696;SDS011;59528;59.082;37.926;2022-07-04T09:35:01;16.23;;;8.85;;
71696;SDS011;59528;59.082;37.926;2022-07-04T09:37:33;14.48;;;8.93;;
71696;SDS011;59528;59.082;37.926;2022-07-04T09:39:58;12.05;;;8.80;;
71696;SDS011;59528;59.082;37.926;2022-07-04T09:42:24;14.43;;;8.18;;
71696;SDS011;59528;59.082;37.926;2022-07-04T09:44:49;17.38;;;8.38;;
71696;SDS011;59528;59.082;37.926;2022-07-04T09:47:19;14.13;;;9.68;;
71696;SDS011;59528;59.082;37.926;2022-07-04T09:52:24;16.25;;;9.38;;
71696;SDS011;59528;59.082;37.926;2022-07-04T09:54:50;13.98;;;9.20;;
71696;SDS011;59528;59.082;37.926;2022-07-04T09:57:16;13.27;;;9.30;;
71696;SDS011;59528;59.082;37.926;2022-07-04T09:59:46;11.82;;;8.60;;
71696;SDS011;59528;59.082;37.926;2022-07-04T10:02:12;12.23;;;9.10;;
71696;SDS011;59528;59.082;37.926;2022-07-04T10:04:41;14.70;;;8.40;;
71696;SDS011;59528;59.082;37.926;2022-07-04T10:07:06;14.25;;;8.18;;
71696;SDS011;59528;59.082;37.926;2022-07-04T10:09:32;10.93;;;8.15;;
71696;SDS011;59528;59.082;37.926;2022-07-04T10:11:57;10.38;;;7.85;;
71696;SDS011;59528;59.082;37.926;2022-07-04T10:14:23;11.13;;;7.30;;
71696;SDS011;59528;59.082;37.926;2022-07-04T10:16:48;13.63;;;7.82;;
71696;SDS011;59528;59.082;37.926;2022-07-04T10:19:14;13.20;;;7.78;;
71696;SDS011;59528;59.082;37.926;2022-07-04T10:21:40;10.98;;;7.20;;
71696;SDS011;59528;59.082;37.926;2022-07-04T10:24:05;10.50;;;8.00;;
71696;SDS011;59528;59.082;37.926;2022-07-04T10:26:31;12.85;;;7.85;;
71696;SDS011;59528;59.082;37.926;2022-07-04T10:28:57;9.55;;;8.00;;
71696;SDS011;59528;59.082;37.926;2022-07-04T10:31:24;10.18;;;7.80;;
71696;SDS011;59528;59.082;37.926;2022-07-04T10:33:50;16.33;;;7.57;;
71696;SDS011;59528;59.082;37.926;2022-07-04T10:36:22;11.10;;;7.93;;
71696;SDS011;59528;59.082;37.926;2022-07-04T10:41:14;8.77;;;7.63;;
71696;SDS011;59528;59.082;37.926;2022-07-04T10:48:54;10.25;;;7.43;;
71696;SDS011;59528;59.082;37.926;2022-07-04T10:56:36;11.23;;;7.95;;
71696;SDS011;59528;59.082;37.926;2022-07-04T10:59:09;10.40;;;7.93;;
71696;SDS011;59528;59.082;37.926;2022-07-04T11:01:35;11.80;;;7.65;;
71696;SDS011;59528;59.082;37.926;2022-07-04T11:04:00;14.88;;;8.70;;
71696;SDS011;59528;59.082;37.926;2022-07-04T11:17:00;9.00;;;7.13;;
71696;SDS011;59528;59.082;37.926;2022-07-04T11:19:26;9.25;;;7.22;;
71696;SDS011;59528;59.082;37.926;2022-07-04T11:21:56;13.30;;;9.40;;
71696;SDS011;59528;59.082;37.926;2022-07-04T11:24:22;8.57;;;7.68;;
71696;SDS011;59528;59.082;37.926;2022-07-04T11:26:47;11.68;;;8.10;;
71696;SDS011;59528;59.082;37.926;2022-07-04T11:29:13;9.95;;;8.23;;
71696;SDS011;59528;59.082;37.926;2022-07-04T11:31:43;9.88;;;7.95;;
71696;SDS011;59528;59.082;37.926;2022-07-04T11:34:09;9.98;;;8.15;;
71696;SDS011;59528;59.082;37.926;2022-07-04T11:36:35;9.93;;;8.50;;
71696;SDS011;59528;59.082;37.926;2022-07-04T11:39:04;12.35;;;8.20;;
71696;SDS011;59528;59.082;37.926;2022-07-04T11:44:15;13.57;;;11.93;;
71696;SDS011;59528;59.082;37.926;2022-07-04T11:49:27;14.18;;;10.30;;
71696;SDS011;59528;59.082;37.926;2022-07-04T11:51:52;12.80;;;10.00;;
71696;SDS011;59528;59.082;37.926;2022-07-04T11:54:21;14.48;;;11.52;;
71696;SDS011;59528;59.082;37.926;2022-07-04T11:56:46;12.95;;;10.95;;
71696;SDS011;59528;59.082;37.926;2022-07-04T11:59:13;12.50;;;10.88;;
71696;SDS011;59528;59.082;37.926;2022-07-04T12:01:39;13.13;;;11.02;;
71696;SDS011;59528;59.082;37.926;2022-07-04T12:04:14;17.13;;;12.27;;
71696;SDS011;59528;59.082;37.926;2022-07-04T12:06:41;16.02;;;12.18;;
71696;SDS011;59528;59.082;37.926;2022-07-04T12:09:07;13.77;;;11.82;;
71696;SDS011;59528;59.082;37.926;2022-07-04T12:14:17;17.40;;;12.68;;
71696;SDS011;59528;59.082;37.926;2022-07-04T12:16:42;16.65;;;12.68;;
71696;SDS011;59528;59.082;37.926;2022-07-04T12:19:11;16.02;;;11.98;;
71696;SDS011;59528;59.082;37.926;2022-07-04T12:21:36;13.38;;;11.75;;
71696;SDS011;59528;59.082;37.926;2022-07-04T12:24:02;15.80;;;12.70;;
71696;SDS011;59528;59.082;37.926;2022-07-04T12:26:32;15.98;;;12.25;;
71696;SDS011;59528;59.082;37.926;2022-07-04T12:28:58;21.17;;;12.98;;
71696;SDS011;59528;59.082;37.926;2022-07-04T12:31:44;16.45;;;12.88;;
71696;SDS011;59528;59.082;37.926;2022-07-04T12:34:15;16.52;;;13.43;;
71696;SDS011;59528;59.082;37.926;2022-07-04T12:36:48;16.10;;;13.00;;
71696;SDS011;59528;59.082;37.926;2022-07-04T12:39:25;14.95;;;13.43;;
71696;SDS011;59528;59.082;37.926;2022-07-04T12:42:02;22.05;;;14.40;;
71696;SDS011;59528;59.082;37.926;2022-07-04T12:44:28;18.35;;;16.40;;
71696;SDS011;59528;59.082;37.926;2022-07-04T12:46:55;19.52;;;15.90;;
71696;SDS011;59528;59.082;37.926;2022-07-04T12:49:21;22.23;;;17.10;;
71696;SDS011;59528;59.082;37.926;2022-07-04T12:51:46;17.60;;;15.77;;
71696;SDS011;59528;59.082;37.926;2022-07-04T12:54:12;27.02;;;17.88;;
71696;SDS011;59528;59.082;37.926;2022-07-04T12:56:38;20.73;;;18.55;;
71696;SDS011;59528;59.082;37.926;2022-07-04T12:59:06;19.88;;;17.40;;
71696;SDS011;59528;59.082;37.926;2022-07-04T13:01:32;24.60;;;18.30;;
71696;SDS011;59528;59.082;37.926;2022-07-04T13:03:58;21.65;;;16.80;;
71696;SDS011;59528;59.082;37.926;2022-07-04T13:06:25;19.23;;;17.30;;
71696;SDS011;59528;59.082;37.926;2022-07-04T13:08:50;19.17;;;17.00;;
71696;SDS011;59528;59.082;37.926;2022-07-04T13:11:16;21.92;;;15.95;;
71696;SDS011;59528;59.082;37.926;2022-07-04T13:14:00;17.80;;;14.60;;
71696;SDS011;59528;59.082;37.926;2022-07-04T13:16:26;18.63;;;14.40;;
71696;SDS011;59528;59.082;37.926;2022-07-04T13:18:51;19.15;;;13.98;;
71696;SDS011;59528;59.082;37.926;2022-07-04T13:21:16;17.23;;;14.20;;
71696;SDS011;59528;59.082;37.926;2022-07-04T13:23:42;21.10;;;15.68;;
71696;SDS011;59528;59.082;37.926;2022-07-04T13:26:08;17.40;;;15.45;;
71696;SDS011;59528;59.082;37.926;2022-07-04T13:28:33;16.45;;;14.70;;
71696;SDS011;59528;59.082;37.926;2022-07-04T13:30:58;17.88;;;15.80;;
71696;SDS011;59528;59.082;37.926;2022-07-04T13:33:24;19.17;;;14.50;;
71696;SDS011;59528;59.082;37.926;2022-07-04T13:35:50;17.25;;;15.40;;
71696;SDS011;59528;59.082;37.926;2022-07-04T13:38:15;17.33;;;14.93;;
71696;SDS011;59528;59.082;37.926;2022-07-04T13:40:43;17.25;;;14.73;;
71696;SDS011;59528;59.082;37.926;2022-07-04T13:43:10;16.35;;;14.32;;
71696;SDS011;59528;59.082;37.926;2022-07-04T13:45:36;15.90;;;14.25;;
71696;SDS011;59528;59.082;37.926;2022-07-04T13:48:01;15.68;;;14.27;;
71696;SDS011;59528;59.082;37.926;2022-07-04T13:50:27;15.05;;;13.63;;
71696;SDS011;59528;59.082;37.926;2022-07-04T13:52:52;12.75;;;10.95;;
71696;SDS011;59528;59.082;37.926;2022-07-04T13:55:18;13.45;;;11.63;;
71696;SDS011;59528;59.082;37.926;2022-07-04T13:57:44;13.68;;;11.13;;
71696;SDS011;59528;59.082;37.926;2022-07-04T14:00:10;13.45;;;10.40;;
71696;SDS011;59528;59.082;37.926;2022-07-04T14:02:35;11.95;;;10.80;;
71696;SDS011;59528;59.082;37.926;2022-07-04T14:05:01;13.13;;;11.80;;
71696;SDS011;59528;59.082;37.926;2022-07-04T14:07:27;13.50;;;12.10;;
71696;SDS011;59528;59.082;37.926;2022-07-04T14:09:52;14.88;;;9.30;;
71696;SDS011;59528;59.082;37.926;2022-07-04T14:12:18;25.23;;;9.10;;
71696;SDS011;59528;59.082;37.926;2022-07-04T14:14:44;24.67;;;9.48;;
71696;SDS011;59528;59.082;37.926;2022-07-04T14:17:09;26.42;;;9.27;;
71696;SDS011;59528;59.082;37.926;2022-07-04T14:19:35;25.35;;;9.45;;
71696;SDS011;59528;59.082;37.926;2022-07-04T14:22:00;17.00;;;9.18;;
71696;SDS011;59528;59.082;37.926;2022-07-04T14:24:26;40.83;;;24.05;;
71696;SDS011;59528;59.082;37.926;2022-07-04T14:26:52;17.40;;;11.13;;
71696;SDS011;59528;59.082;37.926;2022-07-04T14:29:18;18.05;;;11.77;;
71696;SDS011;59528;59.082;37.926;2022-07-04T14:31:43;18.35;;;11.48;;
71696;SDS011;59528;59.082;37.926;2022-07-04T14:34:09;12.40;;;10.95;;
71696;SDS011;59528;59.082;37.926;2022-07-04T14:36:40;16.15;;;10.85;;
71696;SDS011;59528;59.082;37.926;2022-07-04T14:39:06;22.73;;;10.82;;
71696;SDS011;59528;59.082;37.926;2022-07-04T14:41:31;15.10;;;10.75;;
71696;SDS011;59528;59.082;37.926;2022-07-04T14:43:57;11.93;;;10.32;;
71696;SDS011;59528;59.082;37.926;2022-07-04T14:46:23;12.68;;;10.10;;
71696;SDS011;59528;59.082;37.926;2022-07-04T14:48:49;14.63;;;10.00;;
71696;SDS011;59528;59.082;37.926;2022-07-04T14:51:15;15.50;;;10.15;;
71696;SDS011;59528;59.082;37.926;2022-07-04T14:53:41;15.38;;;9.20;;
71696;SDS011;59528;59.082;37.926;2022-07-04T14:56:07;13.73;;;9.88;;
71696;SDS011;59528;59.082;37.926;2022-07-04T14:58:33;11.63;;;9.63;;